LGIR Airport Information

Runway Information
Runway 09 Length 8800 ft width 148 ft
Elevation 78 ft Threshold 1565 ft Heading 95
Runway 27 Length 8800 ft Width 148 ft
Elevation 82 ft Threshold ft Heading 275
Runway 12 Length 5138 ft width 164 ft
Elevation 57 ft Threshold 499 ft Heading 126
Runway 30 Length 5138 ft Width 164 ft
Elevation 115 ft Threshold ft Heading 306
Runway 18 Length 2559 ft width 131 ft
Elevation 78 ft Threshold ft Heading 180
Runway 36 Length 2559 ft Width 131 ft
Elevation 115 ft Threshold 328 ft Heading 0
Airport Frequencies
Type A/G Name KAZANTZAKI Frequency 563.7 MHZ
Type APP Name IRAKLION A Frequency 123.975 MHZ
Type ATIS Name ATIS Frequency 127.55 MHZ
Type DIR Name IRAKLION D Frequency 118.025 MHZ
Type GND Name KAZANTZAKI Frequency 121.7 MHZ
Type TRSA Name IRAKLION R Frequency 123.975 MHZ
Type TWR Name KAZANTZAKI Frequency 120.85 MHZ
Airport Navaids
Type NDB Name Iraklion Frequency 431 KHZ
Type VOR-DME Name Iraklion Frequency 108800 KHZ
Type TACAN Name Iraklion Frequency 108300 KHZ
Airport Weather Information & NOTAM
ADDS - METARS form results

(0157 UTC 08 August 2022)
Data provider http://aviationweather.gov/metar/data/
 
METAR text: LGIR 080150Z 27011KT 9999 FEW020 26/20 Q1006 NOSIG
Conditions at: LGIR (IRAKLION (CIV/AF, GR) observed 0150 UTC 08 August 2022
Temperature: 26.0°C (79°F)
Dewpoint: 20.0°C (68°F) [RH = 70%]
Pressure (altimeter): 29.70 inches Hg (1006.0 mb)
Winds: from the W (270 degrees) at 13 MPH (11 knots; 5.7 m/s)
Visibility: 6 or more miles (10+ km)
Ceiling: at least 12,000 feet AGL
Clouds: few clouds at 2000 feet AGL
Weather: no significant weather observed at this time

METAR text: LGIR 080120Z 27012KT 9999 FEW020 26/20 Q1006 NOSIG
Conditions at: LGIR (IRAKLION (CIV/AF, GR) observed 0120 UTC 08 August 2022
Temperature: 26.0°C (79°F)
Dewpoint: 20.0°C (68°F) [RH = 70%]
Pressure (altimeter): 29.70 inches Hg (1006.0 mb)
Winds: from the W (270 degrees) at 14 MPH (12 knots; 6.2 m/s)
Visibility: 6 or more miles (10+ km)
Ceiling: at least 12,000 feet AGL
Clouds: few clouds at 2000 feet AGL
Weather: no significant weather observed at this time

Forecast for: LGIR (IRAKLION (CIV/AF, GR)
Text: TAF LGIR 072300Z 0800/0824 31016KT 9999 SCT020
Forecast period: 0000 UTC 08 August 2022 to 0000 UTC 09 August 2022
Forecast type: FROM: standard forecast or significant change
Winds: from the NW (310 degrees) at 18 MPH (16 knots; 8.2 m/s)
Visibility: 6 or more miles (10+ km)
Ceiling: at least 12,000 feet AGL
Clouds: scattered clouds at 2000 feet AGL
Weather: no significant weather forecast for this period